sensor_id;sensor_type;location;lat;lon;timestamp;P1;durP1;ratioP1;P2;durP2;ratioP2
26062;SDS011;13837;48.562;12.108;2023-08-30T00:00:36;9.50;;;8.40;;
26062;SDS011;13837;48.562;12.108;2023-08-30T00:03:02;8.80;;;7.90;;
26062;SDS011;13837;48.562;12.108;2023-08-30T00:05:28;9.70;;;8.10;;
26062;SDS011;13837;48.562;12.108;2023-08-30T00:07:54;10.82;;;8.73;;
26062;SDS011;13837;48.562;12.108;2023-08-30T00:10:19;10.48;;;7.80;;
26062;SDS011;13837;48.562;12.108;2023-08-30T00:12:45;10.88;;;8.52;;
26062;SDS011;13837;48.562;12.108;2023-08-30T00:15:10;13.73;;;8.15;;
26062;SDS011;13837;48.562;12.108;2023-08-30T00:17:36;9.85;;;7.80;;
26062;SDS011;13837;48.562;12.108;2023-08-30T00:20:02;9.10;;;7.60;;
26062;SDS011;13837;48.562;12.108;2023-08-30T00:22:28;10.00;;;7.78;;
26062;SDS011;13837;48.562;12.108;2023-08-30T00:24:54;8.35;;;7.28;;
26062;SDS011;13837;48.562;12.108;2023-08-30T00:27:20;8.80;;;7.68;;
26062;SDS011;13837;48.562;12.108;2023-08-30T00:29:46;7.93;;;7.13;;
26062;SDS011;13837;48.562;12.108;2023-08-30T00:32:11;10.02;;;7.85;;
26062;SDS011;13837;48.562;12.108;2023-08-30T00:34:37;10.52;;;7.82;;
26062;SDS011;13837;48.562;12.108;2023-08-30T00:37:03;9.23;;;7.95;;
26062;SDS011;13837;48.562;12.108;2023-08-30T00:39:29;9.40;;;8.48;;
26062;SDS011;13837;48.562;12.108;2023-08-30T00:41:54;11.90;;;8.35;;
26062;SDS011;13837;48.562;12.108;2023-08-30T00:44:21;10.13;;;8.45;;
26062;SDS011;13837;48.562;12.108;2023-08-30T00:46:47;10.48;;;8.45;;
26062;SDS011;13837;48.562;12.108;2023-08-30T00:49:13;10.10;;;8.70;;
26062;SDS011;13837;48.562;12.108;2023-08-30T00:51:39;9.93;;;8.68;;
26062;SDS011;13837;48.562;12.108;2023-08-30T00:54:05;12.95;;;9.25;;
26062;SDS011;13837;48.562;12.108;2023-08-30T00:56:32;10.60;;;8.93;;
26062;SDS011;13837;48.562;12.108;2023-08-30T00:58:58;11.32;;;8.75;;
26062;SDS011;13837;48.562;12.108;2023-08-30T01:01:24;10.95;;;9.23;;
26062;SDS011;13837;48.562;12.108;2023-08-30T01:03:50;9.43;;;7.93;;
26062;SDS011;13837;48.562;12.108;2023-08-30T01:06:18;11.82;;;10.13;;
26062;SDS011;13837;48.562;12.108;2023-08-30T01:08:43;13.30;;;10.25;;
26062;SDS011;13837;48.562;12.108;2023-08-30T01:13:56;12.23;;;9.57;;
26062;SDS011;13837;48.562;12.108;2023-08-30T01:16:31;12.23;;;9.23;;
26062;SDS011;13837;48.562;12.108;2023-08-30T01:18:57;11.73;;;9.80;;
26062;SDS011;13837;48.562;12.108;2023-08-30T01:24:17;11.82;;;9.75;;
26062;SDS011;13837;48.562;12.108;2023-08-30T01:29:34;11.43;;;9.95;;
26062;SDS011;13837;48.562;12.108;2023-08-30T01:32:03;12.65;;;10.30;;
26062;SDS011;13837;48.562;12.108;2023-08-30T01:34:31;12.52;;;10.40;;
26062;SDS011;13837;48.562;12.108;2023-08-30T01:36:58;13.70;;;10.65;;
26062;SDS011;13837;48.562;12.108;2023-08-30T01:39:26;13.73;;;11.07;;
26062;SDS011;13837;48.562;12.108;2023-08-30T01:41:52;12.20;;;10.20;;
26062;SDS011;13837;48.562;12.108;2023-08-30T01:44:26;14.77;;;10.98;;
26062;SDS011;13837;48.562;12.108;2023-08-30T01:46:53;16.05;;;11.35;;
26062;SDS011;13837;48.562;12.108;2023-08-30T01:49:20;14.25;;;10.60;;
26062;SDS011;13837;48.562;12.108;2023-08-30T01:51:47;15.48;;;11.63;;
26062;SDS011;13837;48.562;12.108;2023-08-30T01:54:16;13.77;;;11.13;;
26062;SDS011;13837;48.562;12.108;2023-08-30T01:56:43;15.20;;;10.23;;
26062;SDS011;13837;48.562;12.108;2023-08-30T01:59:11;15.55;;;10.77;;
26062;SDS011;13837;48.562;12.108;2023-08-30T02:01:37;14.40;;;11.35;;
26062;SDS011;13837;48.562;12.108;2023-08-30T02:04:02;15.00;;;11.57;;
26062;SDS011;13837;48.562;12.108;2023-08-30T02:06:33;16.42;;;11.93;;
26062;SDS011;13837;48.562;12.108;2023-08-30T02:11:53;14.52;;;12.13;;
26062;SDS011;13837;48.562;12.108;2023-08-30T02:14:20;14.23;;;12.30;;
26062;SDS011;13837;48.562;12.108;2023-08-30T02:16:47;16.92;;;13.05;;
26062;SDS011;13837;48.562;12.108;2023-08-30T02:19:13;15.80;;;13.30;;
26062;SDS011;13837;48.562;12.108;2023-08-30T02:21:47;15.75;;;12.63;;
26062;SDS011;13837;48.562;12.108;2023-08-30T02:24:13;18.52;;;12.68;;
26062;SDS011;13837;48.562;12.108;2023-08-30T02:26:39;17.00;;;13.55;;
26062;SDS011;13837;48.562;12.108;2023-08-30T02:29:05;16.92;;;12.88;;
26062;SDS011;13837;48.562;12.108;2023-08-30T02:31:31;17.48;;;13.50;;
26062;SDS011;13837;48.562;12.108;2023-08-30T02:33:57;16.42;;;13.02;;
26062;SDS011;13837;48.562;12.108;2023-08-30T02:36:22;18.58;;;13.70;;
26062;SDS011;13837;48.562;12.108;2023-08-30T02:38:48;19.85;;;14.35;;
26062;SDS011;13837;48.562;12.108;2023-08-30T02:41:14;23.48;;;14.73;;
26062;SDS011;13837;48.562;12.108;2023-08-30T02:43:39;20.27;;;14.85;;
26062;SDS011;13837;48.562;12.108;2023-08-30T02:46:05;20.35;;;14.65;;
26062;SDS011;13837;48.562;12.108;2023-08-30T02:48:34;18.27;;;14.35;;
26062;SDS011;13837;48.562;12.108;2023-08-30T02:50:59;19.77;;;14.15;;
26062;SDS011;13837;48.562;12.108;2023-08-30T02:53:25;18.85;;;15.07;;
26062;SDS011;13837;48.562;12.108;2023-08-30T02:55:51;21.23;;;15.02;;
26062;SDS011;13837;48.562;12.108;2023-08-30T03:00:47;20.08;;;14.88;;
26062;SDS011;13837;48.562;12.108;2023-08-30T03:03:13;22.58;;;15.52;;
26062;SDS011;13837;48.562;12.108;2023-08-30T03:05:39;22.20;;;15.85;;
26062;SDS011;13837;48.562;12.108;2023-08-30T03:08:05;17.98;;;14.02;;
26062;SDS011;13837;48.562;12.108;2023-08-30T03:10:32;20.75;;;14.93;;
26062;SDS011;13837;48.562;12.108;2023-08-30T03:12:57;21.27;;;14.98;;
26062;SDS011;13837;48.562;12.108;2023-08-30T03:15:24;20.65;;;15.48;;
26062;SDS011;13837;48.562;12.108;2023-08-30T03:17:49;20.30;;;15.98;;
26062;SDS011;13837;48.562;12.108;2023-08-30T03:20:15;22.27;;;16.27;;
26062;SDS011;13837;48.562;12.108;2023-08-30T03:22:41;22.65;;;16.67;;
26062;SDS011;13837;48.562;12.108;2023-08-30T03:25:07;22.48;;;16.67;;
26062;SDS011;13837;48.562;12.108;2023-08-30T03:27:34;22.77;;;15.02;;
26062;SDS011;13837;48.562;12.108;2023-08-30T03:30:02;22.33;;;16.15;;
26062;SDS011;13837;48.562;12.108;2023-08-30T03:32:31;24.00;;;16.85;;
26062;SDS011;13837;48.562;12.108;2023-08-30T03:34:58;23.73;;;16.25;;
26062;SDS011;13837;48.562;12.108;2023-08-30T03:37:24;21.70;;;16.33;;
26062;SDS011;13837;48.562;12.108;2023-08-30T03:39:49;23.20;;;16.83;;
26062;SDS011;13837;48.562;12.108;2023-08-30T03:42:15;31.75;;;16.88;;
26062;SDS011;13837;48.562;12.108;2023-08-30T03:44:41;21.75;;;16.80;;
26062;SDS011;13837;48.562;12.108;2023-08-30T03:47:06;24.15;;;16.73;;
26062;SDS011;13837;48.562;12.108;2023-08-30T03:49:32;26.67;;;16.88;;
26062;SDS011;13837;48.562;12.108;2023-08-30T03:51:58;34.75;;;21.15;;
26062;SDS011;13837;48.562;12.108;2023-08-30T03:54:23;30.02;;;18.88;;
26062;SDS011;13837;48.562;12.108;2023-08-30T03:56:51;31.15;;;19.42;;
26062;SDS011;13837;48.562;12.108;2023-08-30T03:59:16;24.45;;;16.90;;
26062;SDS011;13837;48.562;12.108;2023-08-30T04:01:42;23.52;;;16.30;;
26062;SDS011;13837;48.562;12.108;2023-08-30T04:04:09;26.20;;;17.90;;
26062;SDS011;13837;48.562;12.108;2023-08-30T04:06:35;21.73;;;16.63;;
26062;SDS011;13837;48.562;12.108;2023-08-30T04:09:01;23.33;;;17.25;;
26062;SDS011;13837;48.562;12.108;2023-08-30T04:11:26;24.60;;;17.98;;
26062;SDS011;13837;48.562;12.108;2023-08-30T04:13:52;24.73;;;17.02;;
26062;SDS011;13837;48.562;12.108;2023-08-30T04:16:18;29.52;;;18.35;;
26062;SDS011;13837;48.562;12.108;2023-08-30T04:18:44;26.75;;;18.42;;
26062;SDS011;13837;48.562;12.108;2023-08-30T04:21:10;29.02;;;17.75;;
26062;SDS011;13837;48.562;12.108;2023-08-30T04:23:36;23.90;;;16.58;;
26062;SDS011;13837;48.562;12.108;2023-08-30T04:26:01;24.65;;;18.38;;
26062;SDS011;13837;48.562;12.108;2023-08-30T04:28:27;24.52;;;17.48;;
26062;SDS011;13837;48.562;12.108;2023-08-30T04:30:54;26.35;;;17.83;;
26062;SDS011;13837;48.562;12.108;2023-08-30T04:33:20;23.40;;;16.55;;
26062;SDS011;13837;48.562;12.108;2023-08-30T04:35:50;24.67;;;17.70;;
26062;SDS011;13837;48.562;12.108;2023-08-30T04:38:16;28.98;;;18.85;;
26062;SDS011;13837;48.562;12.108;2023-08-30T04:40:42;26.23;;;18.73;;
26062;SDS011;13837;48.562;12.108;2023-08-30T04:43:08;25.98;;;17.33;;
26062;SDS011;13837;48.562;12.108;2023-08-30T04:45:34;26.35;;;17.23;;
26062;SDS011;13837;48.562;12.108;2023-08-30T04:48:02;24.63;;;17.23;;
26062;SDS011;13837;48.562;12.108;2023-08-30T04:50:28;26.60;;;17.40;;
26062;SDS011;13837;48.562;12.108;2023-08-30T04:52:54;26.73;;;18.92;;
26062;SDS011;13837;48.562;12.108;2023-08-30T04:55:24;26.67;;;18.55;;
26062;SDS011;13837;48.562;12.108;2023-08-30T04:57:50;26.83;;;19.25;;
26062;SDS011;13837;48.562;12.108;2023-08-30T05:00:17;28.55;;;19.17;;
26062;SDS011;13837;48.562;12.108;2023-08-30T05:02:44;30.67;;;20.15;;
26062;SDS011;13837;48.562;12.108;2023-08-30T05:05:13;30.10;;;19.17;;
26062;SDS011;13837;48.562;12.108;2023-08-30T05:07:39;31.08;;;20.48;;
26062;SDS011;13837;48.562;12.108;2023-08-30T05:10:05;29.13;;;19.73;;
26062;SDS011;13837;48.562;12.108;2023-08-30T05:12:34;28.30;;;19.08;;
26062;SDS011;13837;48.562;12.108;2023-08-30T05:15:00;28.70;;;19.70;;
26062;SDS011;13837;48.562;12.108;2023-08-30T05:17:27;28.88;;;19.50;;
26062;SDS011;13837;48.562;12.108;2023-08-30T05:19:55;29.02;;;19.42;;
26062;SDS011;13837;48.562;12.108;2023-08-30T05:22:21;28.17;;;18.77;;
26062;SDS011;13837;48.562;12.108;2023-08-30T05:24:46;29.17;;;19.55;;
26062;SDS011;13837;48.562;12.108;2023-08-30T05:27:13;30.20;;;19.92;;
26062;SDS011;13837;48.562;12.108;2023-08-30T05:29:40;31.05;;;20.02;;
26062;SDS011;13837;48.562;12.108;2023-08-30T05:32:05;29.42;;;18.88;;
26062;SDS011;13837;48.562;12.108;2023-08-30T05:34:58;30.80;;;19.83;;
26062;SDS011;13837;48.562;12.108;2023-08-30T05:37:31;31.20;;;19.05;;
26062;SDS011;13837;48.562;12.108;2023-08-30T05:40:02;34.83;;;19.58;;
26062;SDS011;13837;48.562;12.108;2023-08-30T05:42:29;34.00;;;19.98;;
26062;SDS011;13837;48.562;12.108;2023-08-30T05:44:55;33.30;;;19.00;;
26062;SDS011;13837;48.562;12.108;2023-08-30T05:47:21;31.88;;;20.27;;
26062;SDS011;13837;48.562;12.108;2023-08-30T05:49:47;29.83;;;18.83;;
26062;SDS011;13837;48.562;12.108;2023-08-30T05:52:14;27.80;;;19.52;;
26062;SDS011;13837;48.562;12.108;2023-08-30T05:54:41;30.95;;;19.25;;
26062;SDS011;13837;48.562;12.108;2023-08-30T05:57:07;30.48;;;19.52;;
26062;SDS011;13837;48.562;12.108;2023-08-30T05:59:35;28.80;;;18.52;;
26062;SDS011;13837;48.562;12.108;2023-08-30T06:02:01;33.20;;;19.73;;
26062;SDS011;13837;48.562;12.108;2023-08-30T06:04:27;27.90;;;18.55;;
26062;SDS011;13837;48.562;12.108;2023-08-30T06:06:53;29.33;;;19.92;;
26062;SDS011;13837;48.562;12.108;2023-08-30T06:09:19;32.38;;;19.55;;
26062;SDS011;13837;48.562;12.108;2023-08-30T06:11:44;30.45;;;19.92;;
26062;SDS011;13837;48.562;12.108;2023-08-30T06:14:10;32.47;;;19.75;;
26062;SDS011;13837;48.562;12.108;2023-08-30T06:16:35;33.97;;;19.33;;
26062;SDS011;13837;48.562;12.108;2023-08-30T06:19:01;30.17;;;20.13;;
26062;SDS011;13837;48.562;12.108;2023-08-30T06:21:27;30.05;;;18.92;;
26062;SDS011;13837;48.562;12.108;2023-08-30T06:23:53;32.53;;;20.30;;
26062;SDS011;13837;48.562;12.108;2023-08-30T06:26:19;32.63;;;20.20;;
26062;SDS011;13837;48.562;12.108;2023-08-30T06:28:44;34.15;;;19.83;;
26062;SDS011;13837;48.562;12.108;2023-08-30T06:31:10;28.63;;;18.67;;
26062;SDS011;13837;48.562;12.108;2023-08-30T06:33:36;28.95;;;18.98;;
26062;SDS011;13837;48.562;12.108;2023-08-30T06:36:03;27.63;;;18.65;;
26062;SDS011;13837;48.562;12.108;2023-08-30T06:38:29;29.77;;;19.45;;
26062;SDS011;13837;48.562;12.108;2023-08-30T06:40:57;30.20;;;20.00;;
26062;SDS011;13837;48.562;12.108;2023-08-30T06:43:23;30.65;;;19.50;;
26062;SDS011;13837;48.562;12.108;2023-08-30T06:45:48;29.02;;;19.60;;
26062;SDS011;13837;48.562;12.108;2023-08-30T06:48:14;26.27;;;19.13;;
26062;SDS011;13837;48.562;12.108;2023-08-30T06:50:40;29.13;;;19.92;;
26062;SDS011;13837;48.562;12.108;2023-08-30T06:53:05;27.65;;;18.98;;
26062;SDS011;13837;48.562;12.108;2023-08-30T06:55:31;26.40;;;18.65;;
26062;SDS011;13837;48.562;12.108;2023-08-30T06:57:58;28.35;;;19.33;;
26062;SDS011;13837;48.562;12.108;2023-08-30T07:00:24;25.35;;;17.63;;
26062;SDS011;13837;48.562;12.108;2023-08-30T07:02:50;26.73;;;17.02;;
26062;SDS011;13837;48.562;12.108;2023-08-30T07:05:15;25.80;;;17.27;;
26062;SDS011;13837;48.562;12.108;2023-08-30T07:07:41;25.33;;;16.17;;
26062;SDS011;13837;48.562;12.108;2023-08-30T07:10:07;23.35;;;16.38;;
26062;SDS011;13837;48.562;12.108;2023-08-30T07:12:34;21.75;;;15.95;;
26062;SDS011;13837;48.562;12.108;2023-08-30T07:14:59;19.30;;;15.07;;
26062;SDS011;13837;48.562;12.108;2023-08-30T07:17:25;22.38;;;16.08;;
26062;SDS011;13837;48.562;12.108;2023-08-30T07:19:50;19.08;;;15.10;;
26062;SDS011;13837;48.562;12.108;2023-08-30T07:22:16;19.17;;;14.38;;
26062;SDS011;13837;48.562;12.108;2023-08-30T07:24:42;22.52;;;15.32;;
26062;SDS011;13837;48.562;12.108;2023-08-30T07:27:09;17.48;;;13.73;;
26062;SDS011;13837;48.562;12.108;2023-08-30T07:29:36;17.48;;;13.30;;
26062;SDS011;13837;48.562;12.108;2023-08-30T07:32:02;19.63;;;14.35;;
26062;SDS011;13837;48.562;12.108;2023-08-30T07:34:28;17.60;;;12.90;;
26062;SDS011;13837;48.562;12.108;2023-08-30T07:36:54;16.40;;;12.38;;
26062;SDS011;13837;48.562;12.108;2023-08-30T07:39:21;17.05;;;13.45;;
26062;SDS011;13837;48.562;12.108;2023-08-30T07:41:46;17.60;;;12.68;;
26062;SDS011;13837;48.562;12.108;2023-08-30T07:44:12;18.35;;;13.65;;
26062;SDS011;13837;48.562;12.108;2023-08-30T07:46:38;19.63;;;13.60;;
26062;SDS011;13837;48.562;12.108;2023-08-30T07:49:03;16.35;;;12.90;;
26062;SDS011;13837;48.562;12.108;2023-08-30T07:51:29;16.98;;;12.85;;
26062;SDS011;13837;48.562;12.108;2023-08-30T07:53:55;17.98;;;13.35;;
26062;SDS011;13837;48.562;12.108;2023-08-30T07:56:20;18.92;;;13.77;;
26062;SDS011;13837;48.562;12.108;2023-08-30T07:58:46;19.70;;;13.60;;
26062;SDS011;13837;48.562;12.108;2023-08-30T08:01:12;20.38;;;14.07;;
26062;SDS011;13837;48.562;12.108;2023-08-30T08:03:38;17.98;;;13.15;;
26062;SDS011;13837;48.562;12.108;2023-08-30T08:06:05;17.73;;;12.68;;
26062;SDS011;13837;48.562;12.108;2023-08-30T08:08:31;17.65;;;13.30;;
26062;SDS011;13837;48.562;12.108;2023-08-30T08:10:58;16.00;;;12.43;;
26062;SDS011;13837;48.562;12.108;2023-08-30T08:13:24;15.52;;;12.23;;
26062;SDS011;13837;48.562;12.108;2023-08-30T08:15:50;15.75;;;12.23;;
26062;SDS011;13837;48.562;12.108;2023-08-30T08:18:16;17.02;;;13.10;;
26062;SDS011;13837;48.562;12.108;2023-08-30T08:20:42;16.48;;;12.75;;
26062;SDS011;13837;48.562;12.108;2023-08-30T08:23:08;14.38;;;11.80;;
26062;SDS011;13837;48.562;12.108;2023-08-30T08:25:34;16.75;;;13.27;;
26062;SDS011;13837;48.562;12.108;2023-08-30T08:28:00;16.60;;;12.50;;
26062;SDS011;13837;48.562;12.108;2023-08-30T08:30:25;16.38;;;12.05;;
26062;SDS011;13837;48.562;12.108;2023-08-30T08:32:51;18.95;;;12.05;;
26062;SDS011;13837;48.562;12.108;2023-08-30T08:35:17;13.80;;;11.20;;
26062;SDS011;13837;48.562;12.108;2023-08-30T08:37:42;14.25;;;11.52;;
26062;SDS011;13837;48.562;12.108;2023-08-30T08:40:08;15.98;;;11.68;;
26062;SDS011;13837;48.562;12.108;2023-08-30T08:42:35;13.55;;;10.13;;
26062;SDS011;13837;48.562;12.108;2023-08-30T08:45:02;14.60;;;10.00;;
26062;SDS011;13837;48.562;12.108;2023-08-30T08:47:29;14.32;;;10.25;;
26062;SDS011;13837;48.562;12.108;2023-08-30T08:49:56;14.13;;;10.27;;
26062;SDS011;13837;48.562;12.108;2023-08-30T08:52:25;14.13;;;11.00;;
26062;SDS011;13837;48.562;12.108;2023-08-30T08:54:51;12.93;;;9.82;;
26062;SDS011;13837;48.562;12.108;2023-08-30T08:57:17;12.18;;;9.73;;
26062;SDS011;13837;48.562;12.108;2023-08-30T08:59:44;13.27;;;10.48;;
26062;SDS011;13837;48.562;12.108;2023-08-30T09:02:12;10.05;;;8.70;;
26062;SDS011;13837;48.562;12.108;2023-08-30T09:04:39;10.02;;;8.93;;
26062;SDS011;13837;48.562;12.108;2023-08-30T09:07:05;10.35;;;8.77;;
26062;SDS011;13837;48.562;12.108;2023-08-30T09:09:31;9.38;;;8.20;;
26062;SDS011;13837;48.562;12.108;2023-08-30T09:11:58;10.18;;;8.00;;
26062;SDS011;13837;48.562;12.108;2023-08-30T09:14:24;8.77;;;7.88;;
26062;SDS011;13837;48.562;12.108;2023-08-30T09:17:01;9.32;;;7.65;;
26062;SDS011;13837;48.562;12.108;2023-08-30T09:19:27;8.40;;;7.30;;
26062;SDS011;13837;48.562;12.108;2023-08-30T09:21:54;8.13;;;7.20;;
26062;SDS011;13837;48.562;12.108;2023-08-30T09:24:20;7.70;;;6.97;;
26062;SDS011;13837;48.562;12.108;2023-08-30T09:26:50;8.52;;;7.70;;
26062;SDS011;13837;48.562;12.108;2023-08-30T09:29:18;7.40;;;6.70;;
26062;SDS011;13837;48.562;12.108;2023-08-30T09:31:45;7.78;;;6.57;;
26062;SDS011;13837;48.562;12.108;2023-08-30T09:34:11;7.80;;;6.90;;
26062;SDS011;13837;48.562;12.108;2023-08-30T09:36:37;7.40;;;6.70;;
26062;SDS011;13837;48.562;12.108;2023-08-30T09:39:04;6.53;;;5.93;;
26062;SDS011;13837;48.562;12.108;2023-08-30T09:41:40;7.25;;;6.43;;
26062;SDS011;13837;48.562;12.108;2023-08-30T09:44:13;6.75;;;6.18;;
26062;SDS011;13837;48.562;12.108;2023-08-30T09:46:50;7.55;;;6.20;;
26062;SDS011;13837;48.562;12.108;2023-08-30T09:49:18;7.60;;;6.07;;
26062;SDS011;13837;48.562;12.108;2023-08-30T09:51:48;6.20;;;5.68;;
26062;SDS011;13837;48.562;12.108;2023-08-30T09:54:15;6.50;;;5.63;;
26062;SDS011;13837;48.562;12.108;2023-08-30T09:56:42;6.95;;;6.22;;
26062;SDS011;13837;48.562;12.108;2023-08-30T09:59:14;7.45;;;6.75;;
26062;SDS011;13837;48.562;12.108;2023-08-30T10:01:41;7.00;;;6.30;;
26062;SDS011;13837;48.562;12.108;2023-08-30T10:04:07;6.32;;;5.75;;
26062;SDS011;13837;48.562;12.108;2023-08-30T10:06:34;6.20;;;5.60;;
26062;SDS011;13837;48.562;12.108;2023-08-30T10:09:04;7.05;;;5.05;;
26062;SDS011;13837;48.562;12.108;2023-08-30T10:11:37;5.60;;;5.10;;
26062;SDS011;13837;48.562;12.108;2023-08-30T10:14:04;5.95;;;5.45;;
26062;SDS011;13837;48.562;12.108;2023-08-30T10:16:52;6.00;;;5.40;;
26062;SDS011;13837;48.562;12.108;2023-08-30T10:19:26;10.00;;;5.53;;
26062;SDS011;13837;48.562;12.108;2023-08-30T10:21:54;6.57;;;5.97;;
26062;SDS011;13837;48.562;12.108;2023-08-30T10:24:24;7.22;;;5.53;;
26062;SDS011;13837;48.562;12.108;2023-08-30T10:26:52;5.90;;;5.40;;
26062;SDS011;13837;48.562;12.108;2023-08-30T10:29:19;6.18;;;5.68;;
26062;SDS011;13837;48.562;12.108;2023-08-30T10:31:46;7.28;;;6.63;;
26062;SDS011;13837;48.562;12.108;2023-08-30T10:34:15;6.28;;;5.68;;
26062;SDS011;13837;48.562;12.108;2023-08-30T10:36:42;6.40;;;5.40;;
26062;SDS011;13837;48.562;12.108;2023-08-30T10:39:12;5.57;;;5.00;;
26062;SDS011;13837;48.562;12.108;2023-08-30T10:41:54;4.90;;;4.30;;
26062;SDS011;13837;48.562;12.108;2023-08-30T10:44:21;4.88;;;4.47;;
26062;SDS011;13837;48.562;12.108;2023-08-30T10:46:51;5.07;;;4.57;;
26062;SDS011;13837;48.562;12.108;2023-08-30T10:49:19;4.28;;;3.95;;
26062;SDS011;13837;48.562;12.108;2023-08-30T10:51:44;4.93;;;4.53;;
26062;SDS011;13837;48.562;12.108;2023-08-30T10:54:15;4.60;;;4.20;;
26062;SDS011;13837;48.562;12.108;2023-08-30T10:56:45;4.63;;;3.90;;
26062;SDS011;13837;48.562;12.108;2023-08-30T10:59:19;4.10;;;3.78;;
26062;SDS011;13837;48.562;12.108;2023-08-30T11:01:46;4.82;;;3.75;;
26062;SDS011;13837;48.562;12.108;2023-08-30T11:04:13;4.22;;;3.80;;
26062;SDS011;13837;48.562;12.108;2023-08-30T11:06:41;4.32;;;3.60;;
26062;SDS011;13837;48.562;12.108;2023-08-30T11:09:08;3.90;;;3.60;;
26062;SDS011;13837;48.562;12.108;2023-08-30T11:11:36;4.40;;;3.50;;
26062;SDS011;13837;48.562;12.108;2023-08-30T11:14:08;4.80;;;3.35;;
26062;SDS011;13837;48.562;12.108;2023-08-30T11:16:34;5.07;;;3.80;;
26062;SDS011;13837;48.562;12.108;2023-08-30T11:19:01;4.47;;;4.10;;
26062;SDS011;13837;48.562;12.108;2023-08-30T11:21:29;4.90;;;4.40;;
26062;SDS011;13837;48.562;12.108;2023-08-30T11:23:56;5.82;;;5.22;;
26062;SDS011;13837;48.562;12.108;2023-08-30T11:26:22;7.45;;;5.85;;
26062;SDS011;13837;48.562;12.108;2023-08-30T11:28:47;6.95;;;6.25;;
26062;SDS011;13837;48.562;12.108;2023-08-30T11:31:22;7.53;;;6.82;;
26062;SDS011;13837;48.562;12.108;2023-08-30T11:33:54;8.35;;;7.55;;
26062;SDS011;13837;48.562;12.108;2023-08-30T11:36:22;8.15;;;6.90;;
26062;SDS011;13837;48.562;12.108;2023-08-30T11:38:52;8.15;;;7.38;;
26062;SDS011;13837;48.562;12.108;2023-08-30T11:41:22;8.93;;;7.93;;
26062;SDS011;13837;48.562;12.108;2023-08-30T11:43:52;9.35;;;8.38;;
26062;SDS011;13837;48.562;12.108;2023-08-30T11:46:20;9.55;;;8.18;;
26062;SDS011;13837;48.562;12.108;2023-08-30T11:48:47;9.68;;;8.77;;
26062;SDS011;13837;48.562;12.108;2023-08-30T11:51:13;10.82;;;8.90;;
26062;SDS011;13837;48.562;12.108;2023-08-30T11:53:39;10.38;;;9.38;;
26062;SDS011;13837;48.562;12.108;2023-08-30T11:56:06;11.18;;;9.60;;
26062;SDS011;13837;48.562;12.108;2023-08-30T11:58:35;10.50;;;9.35;;
26062;SDS011;13837;48.562;12.108;2023-08-30T12:01:02;9.05;;;8.13;;
26062;SDS011;13837;48.562;12.108;2023-08-30T12:03:29;10.65;;;9.20;;
26062;SDS011;13837;48.562;12.108;2023-08-30T12:05:56;11.07;;;9.15;;
26062;SDS011;13837;48.562;12.108;2023-08-30T12:08:23;11.80;;;9.23;;
26062;SDS011;13837;48.562;12.108;2023-08-30T12:10:51;9.88;;;8.88;;
26062;SDS011;13837;48.562;12.108;2023-08-30T12:15:53;10.68;;;7.95;;
26062;SDS011;13837;48.562;12.108;2023-08-30T12:18:26;9.65;;;7.28;;
26062;SDS011;13837;48.562;12.108;2023-08-30T12:21:01;9.07;;;7.40;;
26062;SDS011;13837;48.562;12.108;2023-08-30T12:23:29;8.55;;;7.65;;
26062;SDS011;13837;48.562;12.108;2023-08-30T12:26:03;8.70;;;7.90;;
26062;SDS011;13837;48.562;12.108;2023-08-30T12:28:32;9.38;;;8.32;;
26062;SDS011;13837;48.562;12.108;2023-08-30T12:30:58;9.32;;;8.43;;
26062;SDS011;13837;48.562;12.108;2023-08-30T12:33:24;8.70;;;7.80;;
26062;SDS011;13837;48.562;12.108;2023-08-30T12:35:51;8.30;;;7.50;;
26062;SDS011;13837;48.562;12.108;2023-08-30T12:38:18;8.68;;;7.72;;
26062;SDS011;13837;48.562;12.108;2023-08-30T12:40:47;8.15;;;7.28;;
26062;SDS011;13837;48.562;12.108;2023-08-30T12:43:15;7.97;;;7.18;;
26062;SDS011;13837;48.562;12.108;2023-08-30T12:45:42;7.55;;;6.60;;
26062;SDS011;13837;48.562;12.108;2023-08-30T12:48:09;9.57;;;8.50;;
26062;SDS011;13837;48.562;12.108;2023-08-30T12:50:40;8.93;;;8.02;;
26062;SDS011;13837;48.562;12.108;2023-08-30T12:53:08;8.98;;;8.10;;
26062;SDS011;13837;48.562;12.108;2023-08-30T12:55:35;8.88;;;7.97;;
26062;SDS011;13837;48.562;12.108;2023-08-30T12:58:01;9.63;;;8.10;;
26062;SDS011;13837;48.562;12.108;2023-08-30T13:00:27;9.52;;;7.70;;
26062;SDS011;13837;48.562;12.108;2023-08-30T13:02:53;9.65;;;8.75;;
26062;SDS011;13837;48.562;12.108;2023-08-30T13:05:19;8.85;;;8.05;;
26062;SDS011;13837;48.562;12.108;2023-08-30T13:07:46;10.32;;;8.73;;
26062;SDS011;13837;48.562;12.108;2023-08-30T13:10:13;8.40;;;7.47;;
26062;SDS011;13837;48.562;12.108;2023-08-30T13:12:39;7.93;;;7.22;;
26062;SDS011;13837;48.562;12.108;2023-08-30T13:15:05;9.57;;;7.75;;
26062;SDS011;13837;48.562;12.108;2023-08-30T13:17:31;7.70;;;7.00;;
26062;SDS011;13837;48.562;12.108;2023-08-30T13:19:57;8.65;;;7.75;;
26062;SDS011;13837;48.562;12.108;2023-08-30T13:22:23;7.82;;;7.13;;
26062;SDS011;13837;48.562;12.108;2023-08-30T13:24:49;12.80;;;7.35;;
26062;SDS011;13837;48.562;12.108;2023-08-30T13:27:15;7.80;;;7.10;;
26062;SDS011;13837;48.562;12.108;2023-08-30T13:29:41;8.15;;;7.35;;
26062;SDS011;13837;48.562;12.108;2023-08-30T13:32:07;7.53;;;6.88;;
26062;SDS011;13837;48.562;12.108;2023-08-30T13:34:33;7.32;;;6.45;;
26062;SDS011;13837;48.562;12.108;2023-08-30T13:36:58;7.03;;;6.43;;
26062;SDS011;13837;48.562;12.108;2023-08-30T13:39:24;8.63;;;6.90;;
26062;SDS011;13837;48.562;12.108;2023-08-30T13:41:50;7.32;;;6.25;;
26062;SDS011;13837;48.562;12.108;2023-08-30T13:44:15;7.35;;;6.72;;
26062;SDS011;13837;48.562;12.108;2023-08-30T13:46:45;7.63;;;6.53;;
26062;SDS011;13837;48.562;12.108;2023-08-30T13:49:13;6.78;;;6.15;;
26062;SDS011;13837;48.562;12.108;2023-08-30T13:51:40;7.00;;;6.32;;
26062;SDS011;13837;48.562;12.108;2023-08-30T13:54:06;7.00;;;6.40;;
26062;SDS011;13837;48.562;12.108;2023-08-30T13:56:32;6.88;;;6.28;;
26062;SDS011;13837;48.562;12.108;2023-08-30T13:58:57;7.20;;;5.88;;
26062;SDS011;13837;48.562;12.108;2023-08-30T14:01:23;6.32;;;5.72;;
26062;SDS011;13837;48.562;12.108;2023-08-30T14:03:49;6.60;;;5.40;;
26062;SDS011;13837;48.562;12.108;2023-08-30T14:06:15;5.00;;;4.60;;
26062;SDS011;13837;48.562;12.108;2023-08-30T14:08:40;4.65;;;4.25;;
26062;SDS011;13837;48.562;12.108;2023-08-30T14:11:07;7.05;;;4.53;;
26062;SDS011;13837;48.562;12.108;2023-08-30T14:13:33;4.63;;;4.13;;
26062;SDS011;13837;48.562;12.108;2023-08-30T14:15:59;5.22;;;4.72;;
26062;SDS011;13837;48.562;12.108;2023-08-30T14:18:26;4.65;;;4.22;;
26062;SDS011;13837;48.562;12.108;2023-08-30T14:20:57;4.22;;;3.88;;
26062;SDS011;13837;48.562;12.108;2023-08-30T14:23:26;5.28;;;4.78;;
26062;SDS011;13837;48.562;12.108;2023-08-30T14:28:25;4.05;;;3.60;;
26062;SDS011;13837;48.562;12.108;2023-08-30T14:30:52;4.65;;;3.80;;
26062;SDS011;13837;48.562;12.108;2023-08-30T14:33:18;4.40;;;3.80;;
26062;SDS011;13837;48.562;12.108;2023-08-30T14:35:44;3.45;;;3.15;;